Данни от 19.07.2019 г. 15:38:00

Температура вътрешна: 24.8 °C
Температура външна: 31.5 °C
Атмосферно налягане: 997.9 hPa
Атмосферно налягане на морско равнище: 1015.7 hPa
Влажност: 54.7 %



История от последните 24 часа

Дата и часTin [°C]P [hPa]Psl [hPa]H [%]Tout [°C]
   19.07.2019 г. 15:30:00      24.8      998.0      1015.8      54.3      30.6   
   19.07.2019 г. 15:00:00      24.7      998.0      1015.8      54.6      30.6   
   19.07.2019 г. 14:30:00      24.7      998.2      1016.0      54.7      29.4   
   19.07.2019 г. 14:00:00      24.7      998.4      1016.2      54.5      29.3   
   19.07.2019 г. 13:30:00      24.7      998.5      1016.3      54.9      28.9   
   19.07.2019 г. 13:00:00      24.7      998.7      1016.6      55.2      28.1   
   19.07.2019 г. 12:30:00      24.7      998.7      1016.5      55.8      27.5   
   19.07.2019 г. 12:00:00      24.7      998.8      1016.6      55.6      26.8   
   19.07.2019 г. 11:30:00      24.7      998.8      1016.6      55.4      26.0   
   19.07.2019 г. 11:00:00      24.6      998.7      1016.5      55.5      25.1   
   19.07.2019 г. 10:30:00      24.5      998.6      1016.5      55.5      24.4   
   19.07.2019 г. 10:00:00      24.5      998.6      1016.4      55.7      23.5   
   19.07.2019 г. 09:30:00      24.4      998.6      1016.4      55.2      22.6   
   19.07.2019 г. 09:00:00      24.4      998.5      1016.3      54.4      21.6   
   19.07.2019 г. 08:30:00      24.3      998.4      1016.3      54.9      20.9   
   19.07.2019 г. 08:00:00      24.3      998.3      1016.2      54.5      20.1   
   19.07.2019 г. 07:30:00      24.2      998.2      1016.0      54.2      19.3   
   19.07.2019 г. 07:00:00      24.1      997.9      1015.8      54.1      18.8   
   19.07.2019 г. 06:30:00      24.0      997.8      1015.6      53.3      18.5   
   19.07.2019 г. 06:00:00      23.6      997.8      1015.6      53.5      18.5   
   19.07.2019 г. 05:30:00      23.7      997.6      1015.5      53.8      18.8   
   19.07.2019 г. 05:00:00      23.9      997.6      1015.4      53.8      19.3   
   19.07.2019 г. 04:30:00      23.9      997.5      1015.3      53.5      19.4   
   19.07.2019 г. 04:00:00      23.7      997.4      1015.2      55.5      19.8   
   19.07.2019 г. 03:30:00      24.0      997.4      1015.2      54.9      20.1   
   19.07.2019 г. 03:00:01      24.2      997.3      1015.1      54.4      20.8   
   19.07.2019 г. 02:30:00      24.3      997.4      1015.2      54.2      21.4   
   19.07.2019 г. 02:00:01      24.3      997.2      1015.0      54.2      21.6   
   19.07.2019 г. 01:30:00      24.4      997.1      1014.9      53.9      21.6   
   19.07.2019 г. 01:00:00      24.3      997.1      1014.9      53.9      21.3   
   19.07.2019 г. 00:30:00      24.9      996.9      1014.7      53.6      21.8   
   19.07.2019 г. 00:00:00      24.9      996.8      1014.6      53.7      21.6   
   18.07.2019 г. 23:30:00      24.9      996.5      1014.3      54.0      21.9   
   18.07.2019 г. 23:00:00      24.7      996.3      1014.1      54.5      22.0   
   18.07.2019 г. 22:30:00      24.7      996.3      1014.0      55.0      22.0   
   18.07.2019 г. 22:00:00      24.7      996.1      1013.8      54.8      22.8   
   18.07.2019 г. 21:30:00      24.7      995.7      1013.5      54.7      23.8   
   18.07.2019 г. 21:00:00      24.6      995.3      1013.1      54.5      24.9   
   18.07.2019 г. 20:30:00      24.6      995.2      1012.9      53.6      27.5   
   18.07.2019 г. 20:00:00      24.5      994.9      1012.7      53.1      30.1   
   18.07.2019 г. 19:30:00      24.5      994.8      1012.5      53.9      31.0   
   18.07.2019 г. 19:00:00      24.6      994.8      1012.5      53.5      31.8   
   18.07.2019 г. 18:30:00      24.5      994.6      1012.4      53.7      32.9   
   18.07.2019 г. 18:00:00      24.5      994.7      1012.4      53.2      34.3   
   18.07.2019 г. 17:30:00      24.4      994.8      1012.5      53.1      34.6   
   18.07.2019 г. 17:00:00      24.5      994.8      1012.6      52.3      33.4   
   18.07.2019 г. 16:30:00      24.4      994.9      1012.7      53.4      32.2   
   18.07.2019 г. 16:00:00      24.3      995.0      1012.7      53.4      31.0   

BaroSL graphic

TEMPE graphic